Academy, New Jersey
Current Conditions -  °F | °C
As of 2:51 AM on Thursday 23 Oct 2014 (Local Time) from KEWR Reporting Station
Overcast Overcast  
Wind Chill: 53°   Ceiling: 2300
Heat Index: 53°   Visibility: 10mi
Dew Point: 47°   Wind: 22mph
Humidity: 80%   Direction: 10°N
Pressure: 29.72"   Gusts: 30mph
Location:  40.7334°N, 74.1735°W
Report Text: KEWR 230651Z 01019G26KT 10SM BKN023 OVC045 12/08 A2972 RMK AO2 PK WND 35031/0552 SLP062 T01170083 $
Loading
Personal Weather Stations






























Interactive Weather Map New forecast layout! Learn more

10-Day Weather Forecast

Advertisements
Track Severe Weather on mobile